createdAt,value
2022-12-13T00:02:20.553Z,12.80
2022-12-13T00:05:22.736Z,13.80
2022-12-13T00:08:25.012Z,11.55
2022-12-13T00:11:28.645Z,12.07
2022-12-13T00:14:32.794Z,12.23
2022-12-13T00:17:34.931Z,13.53
2022-12-13T00:20:40.381Z,12.20
2022-12-13T00:23:42.542Z,14.25
2022-12-13T00:26:44.692Z,13.07
2022-12-13T00:29:46.752Z,12.43
2022-12-13T00:32:49.052Z,12.93
2022-12-13T00:35:51.114Z,15.32
2022-12-13T00:39:03.088Z,14.77
2022-12-13T00:42:05.398Z,14.57
2022-12-13T00:45:08.067Z,13.20
2022-12-13T00:48:10.881Z,13.93
2022-12-13T00:51:13.525Z,14.87
2022-12-13T00:54:16.487Z,13.90
2022-12-13T00:57:18.606Z,13.05
2022-12-13T01:00:20.953Z,13.62
2022-12-13T01:03:25.756Z,10.07
2022-12-13T01:06:36.449Z,11.73
2022-12-13T01:09:40.090Z,9.77
2022-12-13T01:12:42.291Z,11.00
2022-12-13T01:15:45.982Z,13.07
2022-12-13T01:18:48.094Z,12.30
2022-12-13T01:22:18.242Z,11.35
2022-12-13T01:25:20.348Z,8.80
2022-12-13T01:28:23.758Z,9.45
2022-12-13T01:31:26.470Z,11.02
2022-12-13T01:34:28.478Z,10.10
2022-12-13T01:37:30.458Z,6.72
2022-12-13T01:40:32.782Z,8.88
2022-12-13T01:43:40.835Z,8.77
2022-12-13T01:46:42.862Z,10.13
2022-12-13T01:49:45.634Z,9.57
2022-12-13T01:52:50.110Z,10.48
2022-12-13T01:55:56.890Z,11.33
2022-12-13T01:59:04.109Z,10.23
2022-12-13T02:02:08.656Z,9.18
2022-12-13T02:05:28.909Z,8.65
2022-12-13T02:08:35.964Z,9.43
2022-12-13T02:11:41.988Z,13.20
2022-12-13T02:14:43.999Z,9.70
2022-12-13T02:18:02.410Z,10.33
2022-12-13T02:21:43.483Z,9.60
2022-12-13T02:25:01.963Z,11.40
2022-12-13T02:28:30.715Z,10.93
2022-12-13T02:31:58.247Z,9.93
2022-12-13T02:35:02.691Z,11.12
2022-12-13T02:38:20.111Z,10.93
2022-12-13T02:41:28.225Z,12.50
2022-12-13T02:44:40.423Z,11.98
2022-12-13T02:47:45.901Z,11.55
2022-12-13T02:50:52.921Z,12.93
2022-12-13T02:53:55.327Z,12.67
2022-12-13T02:56:59.274Z,13.88
2022-12-13T03:00:11.458Z,13.32
2022-12-13T03:03:32.706Z,12.80
2022-12-13T03:06:53.419Z,12.05
2022-12-13T03:10:25.595Z,11.35
2022-12-13T03:13:42.844Z,17.08
2022-12-13T03:16:49.522Z,15.13
2022-12-13T03:19:53.845Z,14.43
2022-12-13T03:22:56.954Z,15.35
2022-12-13T03:26:03.625Z,10.90
2022-12-13T03:29:06.349Z,11.55
2022-12-13T03:32:08.444Z,13.07
2022-12-13T03:35:22.211Z,14.13
2022-12-13T03:38:25.975Z,13.07
2022-12-13T03:41:32.386Z,11.35
2022-12-13T03:44:34.461Z,14.82
2022-12-13T03:47:36.515Z,15.15
2022-12-13T03:50:41.549Z,14.43
2022-12-13T03:53:44.693Z,13.77
2022-12-13T03:56:46.766Z,15.82
2022-12-13T03:59:49.340Z,14.33
2022-12-13T04:02:51.578Z,10.10
2022-12-13T04:05:53.764Z,14.25
2022-12-13T04:08:56.337Z,14.98
2022-12-13T04:12:17.057Z,10.27
2022-12-13T04:15:19.076Z,13.93
2022-12-13T04:18:21.494Z,12.50
2022-12-13T04:21:23.602Z,14.25
2022-12-13T04:24:31.741Z,15.33
2022-12-13T04:27:34.373Z,12.82
2022-12-13T04:30:37.551Z,16.35
2022-12-13T04:33:39.587Z,14.90
2022-12-13T04:36:42.635Z,15.50
2022-12-13T04:39:48.070Z,13.70
2022-12-13T04:42:54.141Z,11.50
2022-12-13T04:45:56.829Z,11.63
2022-12-13T04:48:59.016Z,12.53
2022-12-13T04:52:02.537Z,16.77
2022-12-13T04:55:05.164Z,14.57
2022-12-13T04:58:07.257Z,15.70
2022-12-13T05:01:11.475Z,14.32
2022-12-13T05:04:13.764Z,11.27
2022-12-13T05:07:15.847Z,17.98
2022-12-13T05:10:33.743Z,14.53
2022-12-13T05:13:40.043Z,14.07
2022-12-13T05:16:42.176Z,15.68
2022-12-13T05:19:44.379Z,13.52
2022-12-13T05:22:46.499Z,11.90
2022-12-13T05:25:48.790Z,12.73
2022-12-13T05:28:52.190Z,13.75
2022-12-13T05:31:54.716Z,11.93
2022-12-13T05:34:56.805Z,11.40
2022-12-13T05:37:59.028Z,14.00
2022-12-13T05:41:01.821Z,13.25
2022-12-13T05:44:04.247Z,11.30
2022-12-13T05:47:06.261Z,9.80
2022-12-13T05:50:09.351Z,12.60
2022-12-13T05:53:15.969Z,13.10
2022-12-13T05:56:33.183Z,12.60
2022-12-13T05:59:35.384Z,15.20
2022-12-13T06:02:42.451Z,9.88
2022-12-13T06:05:44.792Z,9.43
2022-12-13T06:08:47.200Z,12.80
2022-12-13T06:11:49.660Z,11.77
2022-12-13T06:14:51.891Z,12.13
2022-12-13T06:17:53.928Z,12.35
2022-12-13T06:21:01.024Z,13.50
2022-12-13T06:24:05.756Z,12.60
2022-12-13T06:27:07.847Z,12.88
2022-12-13T06:30:10.421Z,12.98
2022-12-13T06:33:13.408Z,13.65
2022-12-13T06:36:15.632Z,12.48
2022-12-13T06:39:17.800Z,13.43
2022-12-13T06:42:21.444Z,9.63
2022-12-13T06:45:25.095Z,12.57
2022-12-13T06:48:27.467Z,13.70
2022-12-13T06:51:32.602Z,12.52
2022-12-13T06:54:35.599Z,12.93
2022-12-13T06:57:37.611Z,11.93
2022-12-13T07:00:49.058Z,13.35
2022-12-13T07:03:52.041Z,12.48
2022-12-13T07:06:54.134Z,14.38
2022-12-13T07:09:56.244Z,14.98
2022-12-13T07:12:58.354Z,18.50
2022-12-13T07:16:01.438Z,16.27
2022-12-13T07:19:04.470Z,16.85
2022-12-13T07:22:25.279Z,12.90
2022-12-13T07:25:29.475Z,15.67
2022-12-13T07:28:38.964Z,12.10
2022-12-13T07:31:41.251Z,17.90
2022-12-13T07:34:43.982Z,16.27
2022-12-13T07:37:46.128Z,16.00
2022-12-13T07:40:51.326Z,19.15
2022-12-13T07:43:55.017Z,23.95
2022-12-13T07:46:57.982Z,19.47
2022-12-13T07:50:00.102Z,17.85
2022-12-13T07:53:06.809Z,18.30
2022-12-13T07:56:11.927Z,17.10
2022-12-13T07:59:15.769Z,17.95
2022-12-13T08:02:30.263Z,18.95
2022-12-13T08:05:38.169Z,17.48
2022-12-13T08:08:41.252Z,19.80
2022-12-13T08:11:43.585Z,19.83
2022-12-13T08:14:45.669Z,21.87
2022-12-13T08:17:48.509Z,23.38
2022-12-13T08:20:50.807Z,25.93
2022-12-13T08:23:52.903Z,22.08
2022-12-13T08:27:03.063Z,22.55
2022-12-13T08:30:05.828Z,22.45
2022-12-13T08:33:09.216Z,25.30
2022-12-13T08:36:12.918Z,27.23
2022-12-13T08:39:15.125Z,24.10
2022-12-13T08:42:19.736Z,20.48
2022-12-13T08:45:24.061Z,22.37
2022-12-13T08:48:26.241Z,22.15
2022-12-13T08:51:35.242Z,22.37
2022-12-13T08:54:37.705Z,21.85
2022-12-13T08:57:41.253Z,22.90
2022-12-13T09:00:45.355Z,23.35
2022-12-13T09:03:47.716Z,23.33
2022-12-13T09:06:49.815Z,23.90
2022-12-13T09:09:54.707Z,24.75
2022-12-13T09:13:02.408Z,24.05
2022-12-13T09:16:14.252Z,22.05
2022-12-13T09:19:26.910Z,24.75
2022-12-13T09:22:33.130Z,26.13
2022-12-13T09:25:36.723Z,21.10
2022-12-13T09:28:40.046Z,20.40
2022-12-13T09:31:43.904Z,17.27
2022-12-13T09:34:53.406Z,23.62
2022-12-13T09:37:56.033Z,17.83
2022-12-13T09:41:03.560Z,19.73
2022-12-13T09:44:32.009Z,21.98
2022-12-13T09:47:39.297Z,23.02
2022-12-13T09:50:58.515Z,21.98
2022-12-13T09:54:20.162Z,24.00
2022-12-13T09:57:34.261Z,22.05
2022-12-13T10:00:37.217Z,22.50
2022-12-13T10:03:44.196Z,20.25
2022-12-13T10:06:46.286Z,18.73
2022-12-13T10:09:49.930Z,8.63
2022-12-13T10:13:18.259Z,6.50
2022-12-13T10:16:37.058Z,4.22
2022-12-13T10:19:41.754Z,3.72
2022-12-13T10:23:01.547Z,3.37
2022-12-13T10:26:14.794Z,3.80
2022-12-13T10:29:29.625Z,3.85
2022-12-13T10:32:37.211Z,3.67
2022-12-13T10:35:41.368Z,2.80
2022-12-13T10:38:46.244Z,3.40
2022-12-13T10:41:48.397Z,3.30
2022-12-13T10:45:10.583Z,3.75
2022-12-13T10:48:25.085Z,3.87
2022-12-13T10:51:28.175Z,2.42
2022-12-13T10:54:38.423Z,3.58
2022-12-13T10:57:53.676Z,2.73
2022-12-13T11:01:09.457Z,3.60
2022-12-13T11:04:38.010Z,3.03
2022-12-13T11:07:40.171Z,3.50
2022-12-13T11:10:43.474Z,3.60
2022-12-13T11:13:51.386Z,3.30
2022-12-13T11:16:57.848Z,3.50
2022-12-13T11:20:07.259Z,3.58
2022-12-13T11:23:31.983Z,3.22
2022-12-13T11:26:38.212Z,3.00
2022-12-13T11:29:59.220Z,2.47
2022-12-13T11:33:11.951Z,2.58
2022-12-13T11:36:22.836Z,3.97
2022-12-13T11:39:43.509Z,3.75
2022-12-13T11:43:08.656Z,3.28
2022-12-13T11:46:19.718Z,2.40
2022-12-13T11:49:35.337Z,3.50
2022-12-13T11:52:44.837Z,3.10
2022-12-13T11:56:23.938Z,2.47
2022-12-13T11:59:45.270Z,5.22
2022-12-13T12:02:53.827Z,3.97
2022-12-13T12:06:03.114Z,3.53
2022-12-13T12:09:12.452Z,4.05
2022-12-13T12:12:30.598Z,3.58
2022-12-13T12:15:41.596Z,4.37
2022-12-13T12:18:44.359Z,3.30
2022-12-13T12:22:14.688Z,3.05
2022-12-13T12:25:20.173Z,3.35
2022-12-13T12:28:54.744Z,4.03
2022-12-13T12:32:22.069Z,3.53
2022-12-13T12:35:46.495Z,3.67
2022-12-13T12:39:04.197Z,4.12
2022-12-13T12:43:14.199Z,3.72
2022-12-13T12:46:21.186Z,3.50
2022-12-13T12:49:41.697Z,4.10
2022-12-13T12:53:26.160Z,3.90
2022-12-13T12:57:11.037Z,4.85
2022-12-13T13:00:19.860Z,4.93
2022-12-13T13:03:25.248Z,4.75
2022-12-13T13:06:49.390Z,3.55
2022-12-13T13:09:54.626Z,4.70
2022-12-13T13:13:12.651Z,4.80
2022-12-13T13:16:27.484Z,3.85
2022-12-13T13:19:32.472Z,5.62
2022-12-13T13:22:43.397Z,5.97
2022-12-13T13:26:15.886Z,7.13
2022-12-13T13:29:28.359Z,7.78
2022-12-13T13:32:31.642Z,8.70
2022-12-13T13:35:33.810Z,7.25
2022-12-13T13:38:50.401Z,10.23
2022-12-13T13:42:14.107Z,9.93
2022-12-13T13:45:23.885Z,10.43
2022-12-13T13:48:37.951Z,11.32
2022-12-13T13:55:31.524Z,8.45
2022-12-13T13:58:42.454Z,12.30
2022-12-13T14:02:01.057Z,10.60
2022-12-13T14:05:51.480Z,11.85
2022-12-13T14:08:56.657Z,13.23
2022-12-13T14:12:20.494Z,12.13
2022-12-13T14:15:28.301Z,11.23
2022-12-13T14:18:54.403Z,12.73
2022-12-13T14:22:43.579Z,14.43
2022-12-13T14:26:08.715Z,13.07
2022-12-13T14:29:17.367Z,12.52
2022-12-13T14:32:27.560Z,13.33
2022-12-13T14:35:33.467Z,11.02
2022-12-13T14:38:35.800Z,10.55
2022-12-13T14:41:49.728Z,9.95
2022-12-13T14:45:25.422Z,11.00
2022-12-13T14:48:30.858Z,9.70
2022-12-13T14:51:35.900Z,11.07
2022-12-13T14:54:51.448Z,11.40
2022-12-13T14:58:02.217Z,12.57
2022-12-13T15:01:07.145Z,11.65
2022-12-13T15:04:21.734Z,9.70
2022-12-13T15:07:31.582Z,11.05
2022-12-13T15:10:41.052Z,9.98
2022-12-13T15:13:52.717Z,9.82
2022-12-13T15:16:56.974Z,15.98
2022-12-13T15:20:00.723Z,9.00
2022-12-13T15:23:10.180Z,9.70
2022-12-13T15:26:27.697Z,7.47
2022-12-13T15:29:34.272Z,7.50
2022-12-13T15:32:36.800Z,9.55
2022-12-13T15:35:39.083Z,7.60
2022-12-13T15:38:48.957Z,9.05
2022-12-13T15:41:54.183Z,8.27
2022-12-13T15:45:00.845Z,9.18
2022-12-13T15:48:04.227Z,10.45
2022-12-13T15:51:10.111Z,10.27
2022-12-13T15:54:12.257Z,7.45
2022-12-13T15:57:21.979Z,7.45
2022-12-13T16:00:29.991Z,4.62
2022-12-13T16:03:43.825Z,6.93
2022-12-13T16:06:50.795Z,6.17
2022-12-13T16:09:54.826Z,8.48
2022-12-13T16:12:59.353Z,6.35
2022-12-13T16:16:26.707Z,6.87
2022-12-13T16:19:29.789Z,6.78
2022-12-13T16:22:33.115Z,5.30
2022-12-13T16:25:35.155Z,6.72
2022-12-13T16:28:37.346Z,6.80
2022-12-13T16:31:40.130Z,4.87
2022-12-13T16:34:42.193Z,4.47
2022-12-13T16:37:47.997Z,7.97
2022-12-13T16:40:53.948Z,7.57
2022-12-13T16:44:00.686Z,8.05
2022-12-13T16:47:12.459Z,6.87
2022-12-13T16:50:21.054Z,5.22
2022-12-13T16:53:25.269Z,6.60
2022-12-13T16:56:28.672Z,6.37
2022-12-13T16:59:31.194Z,7.07
2022-12-13T17:02:34.766Z,6.93
2022-12-13T17:05:43.906Z,7.05
2022-12-13T17:08:46.171Z,7.33
2022-12-13T17:11:51.462Z,8.95
2022-12-13T17:14:54.798Z,10.90
2022-12-13T17:17:57.388Z,7.85
2022-12-13T17:21:08.319Z,8.32
2022-12-13T17:24:11.389Z,6.87
2022-12-13T17:27:14.757Z,5.70
2022-12-13T17:30:19.539Z,7.07
2022-12-13T17:33:26.180Z,6.78
2022-12-13T17:36:37.269Z,7.60
2022-12-13T17:39:39.587Z,7.33
2022-12-13T17:42:59.512Z,6.82
2022-12-13T17:46:04.320Z,6.75
2022-12-13T17:49:06.776Z,7.53
2022-12-13T17:52:13.259Z,7.80
2022-12-13T17:55:18.621Z,6.70
2022-12-13T17:58:21.564Z,7.20
2022-12-13T18:01:27.281Z,7.03
2022-12-13T18:04:50.583Z,7.28
2022-12-13T18:07:52.988Z,7.22
2022-12-13T18:11:30.817Z,7.27
2022-12-13T18:14:22.395Z,7.20
2022-12-13T18:17:46.781Z,7.03
2022-12-13T18:21:06.705Z,6.00
2022-12-13T18:24:10.871Z,8.13
2022-12-13T18:27:13.886Z,6.70
2022-12-13T18:30:18.099Z,7.95
2022-12-13T18:33:20.572Z,7.25
2022-12-13T18:36:25.280Z,9.15
2022-12-13T18:39:29.825Z,11.48
2022-12-13T18:42:34.130Z,9.43
2022-12-13T18:45:37.042Z,9.05
2022-12-13T18:48:39.602Z,7.07
2022-12-13T18:51:43.153Z,6.87
2022-12-13T18:54:54.447Z,8.52
2022-12-13T18:57:57.907Z,9.40
2022-12-13T19:01:00.971Z,8.68
2022-12-13T19:04:05.355Z,5.95
2022-12-13T19:07:09.057Z,8.07
2022-12-13T19:10:13.954Z,8.50
2022-12-13T19:13:17.835Z,7.97
2022-12-13T19:16:23.203Z,8.32
2022-12-13T19:19:28.950Z,9.88
2022-12-13T19:22:32.564Z,8.00
2022-12-13T19:25:35.666Z,8.90
2022-12-13T19:28:39.309Z,7.97
2022-12-13T19:31:44.019Z,8.15
2022-12-13T19:34:48.024Z,8.73
2022-12-13T19:37:52.768Z,8.20
2022-12-13T19:41:10.068Z,8.70
2022-12-13T19:44:14.814Z,8.70
2022-12-13T19:47:18.537Z,8.23
2022-12-13T19:50:22.395Z,9.00
2022-12-13T19:53:27.478Z,6.85
2022-12-13T19:56:30.902Z,8.20
2022-12-13T19:59:34.400Z,8.80
2022-12-13T20:02:38.513Z,9.35
2022-12-13T20:06:04.030Z,10.23
2022-12-13T20:09:26.875Z,9.25
2022-12-13T20:12:51.064Z,9.38
2022-12-13T20:16:23.635Z,8.90
2022-12-13T20:19:46.384Z,8.20
2022-12-13T20:22:51.527Z,7.80
2022-12-13T20:26:02.600Z,9.23
2022-12-13T20:29:06.411Z,9.90
2022-12-13T20:32:09.668Z,8.50
2022-12-13T20:35:12.541Z,8.27
2022-12-13T20:38:15.751Z,8.68
2022-12-13T20:41:19.952Z,9.20
2022-12-13T20:44:26.016Z,8.43
2022-12-13T20:47:29.392Z,9.00
2022-12-13T20:50:34.689Z,9.98
2022-12-13T20:53:41.299Z,9.23
2022-12-13T20:56:44.226Z,7.97
2022-12-13T20:59:47.390Z,8.65
2022-12-13T21:02:52.146Z,7.07
2022-12-13T21:05:55.263Z,8.70
2022-12-13T21:09:05.798Z,9.30
2022-12-13T21:12:08.795Z,9.30
2022-12-13T21:15:11.163Z,9.00
2022-12-13T21:18:15.859Z,12.57
2022-12-13T21:21:18.346Z,10.13
2022-12-13T21:24:22.760Z,9.48
2022-12-13T21:27:25.068Z,8.70
2022-12-13T21:30:27.311Z,9.35
2022-12-13T21:33:30.339Z,8.23
2022-12-13T21:36:38.868Z,8.88
2022-12-13T21:39:41.143Z,8.77
2022-12-13T21:42:43.102Z,10.15
2022-12-13T21:45:45.281Z,8.27
2022-12-13T21:48:48.923Z,8.00
2022-12-13T21:51:51.001Z,8.38
2022-12-13T21:55:15.241Z,9.50
2022-12-13T21:58:33.616Z,6.82
2022-12-13T22:01:54.100Z,8.07
2022-12-13T22:04:58.608Z,8.03
2022-12-13T22:08:00.585Z,8.55
2022-12-13T22:11:20.926Z,8.77
2022-12-13T22:14:23.926Z,9.60
2022-12-13T22:17:33.098Z,8.75
2022-12-13T22:20:37.544Z,7.97
2022-12-13T22:23:39.658Z,7.10
2022-12-13T22:26:42.051Z,7.62
2022-12-13T22:29:44.101Z,6.22
2022-12-13T22:32:46.210Z,8.35
2022-12-13T22:35:48.210Z,7.20
2022-12-13T22:38:50.711Z,6.93
2022-12-13T22:41:52.963Z,7.37
2022-12-13T22:44:55.020Z,7.40
2022-12-13T22:47:57.123Z,8.38
2022-12-13T22:51:11.895Z,7.13
2022-12-13T22:54:13.979Z,8.00
2022-12-13T22:57:16.099Z,7.22
2022-12-13T23:00:18.573Z,7.22
2022-12-13T23:03:20.680Z,7.12
2022-12-13T23:06:28.422Z,6.47
2022-12-13T23:09:30.628Z,6.75
2022-12-13T23:12:51.742Z,7.15
2022-12-13T23:15:53.741Z,6.62
2022-12-13T23:19:16.989Z,6.12
2022-12-13T23:22:21.502Z,7.10
2022-12-13T23:25:23.762Z,6.78
2022-12-13T23:28:26.100Z,6.68
2022-12-13T23:31:30.694Z,7.80
2022-12-13T23:34:32.851Z,7.22
2022-12-13T23:37:35.289Z,7.97
2022-12-13T23:40:37.314Z,7.10
2022-12-13T23:43:40.016Z,8.20
2022-12-13T23:46:42.108Z,9.07
2022-12-13T23:49:50.726Z,7.55
2022-12-13T23:52:52.791Z,8.27
2022-12-13T23:55:54.837Z,8.43
2022-12-13T23:58:56.887Z,8.70
